Sussex, Wisconsin
Current Conditions -  °F | °C
As of 5:45 AM on Monday 20 Oct 2014 (Local Time) from KUES Reporting Station
Clear Clear  
Wind Chill: 43°   Ceiling: Unl
Heat Index: 43°   Visibility: 10mi
Dew Point: 41°   Wind: 0mph
Humidity: 93%   Direction: NA
Pressure: 29.8"   Gusts: NA
Location:  43.13°N, 88.22°W
Report Text: KUES 201045Z 00000KT 10SM SKC 06/05 A2980
Loading
Personal Weather Stations






























Interactive Weather Map
Tropical Storm Tracking
New forecast layout! Learn more

10-Day Weather Forecast

Advertisements
Track Severe Weather on mobile